Time;durP1;ratioP1;P1;durP2;ratioP2;P2;SDS_P1;SDS_P2;PMS_P1;PMS_P2;Temp;Humidity;BMP_temperature;BMP_pressure;BME280_temperature;BME280_humidity;BME280_pressure;Samples;Min_cycle;Max_cycle;Signal;HPM_P1;HPM_P2
2022/07/21 00:02:02;;;;;;;5.78;2.03;;;;;;;20.71;81.35;101485.66;7385567;19;20071;-63
2022/07/21 00:04:29;;;;;;;5.68;2.45;;;;;;;20.63;80.68;101485.00;7382636;19;20038;-62
2022/07/21 00:06:56;;;;;;;7.57;2.75;;;;;;;20.61;80.80;101487.91;7386499;19;20023;-62
2022/07/21 00:09:23;;;;;;;6.55;2.45;;;;;;;20.55;81.58;101485.19;7384557;19;20014;-66
2022/07/21 00:11:51;;;;;;;4.50;2.03;;;;;;;20.52;81.18;101480.28;7388322;19;20022;-66
2022/07/21 00:14:18;;;;;;;6.22;2.22;;;;;;;20.49;80.97;101487.66;7386358;19;20010;-63
2022/07/21 00:16:46;;;;;;;7.47;2.33;;;;;;;20.43;80.97;101485.78;7387586;19;20021;-63
2022/07/21 00:19:13;;;;;;;5.97;2.35;;;;;;;20.39;80.45;101484.53;7383848;19;20472;-62
2022/07/21 00:21:40;;;;;;;7.55;2.45;;;;;;;20.37;81.04;101488.44;7384840;19;20026;-62
2022/07/21 00:24:07;;;;;;;5.93;2.08;;;;;;;20.39;81.30;101486.38;7385878;19;20021;-61
2022/07/21 00:26:34;;;;;;;6.72;2.20;;;;;;;20.42;81.03;101486.81;7387769;19;20042;-62
2022/07/21 00:29:01;;;;;;;6.78;2.13;;;;;;;20.37;80.56;101491.09;7385905;19;20028;-63
2022/07/21 00:31:28;;;;;;;5.80;2.20;;;;;;;20.39;81.19;101492.56;7388157;19;20070;-63
2022/07/21 00:33:55;;;;;;;4.18;1.90;;;;;;;20.36;81.20;101492.16;7383040;19;20015;-63
2022/07/21 00:36:22;;;;;;;5.28;2.33;;;;;;;20.41;81.34;101495.03;7383678;19;20011;-62
2022/07/21 00:38:49;;;;;;;7.78;2.88;;;;;;;20.44;81.61;101487.44;7381944;19;20483;-62
2022/07/21 00:41:16;;;;;;;7.63;2.00;;;;;;;20.42;79.48;101492.16;7381069;19;20021;-63
2022/07/21 00:43:43;;;;;;;7.28;2.05;;;;;;;20.42;79.22;101492.16;7384812;19;20010;-62
2022/07/21 00:46:10;;;;;;;7.63;2.15;;;;;;;20.42;79.29;101494.00;7383321;19;20032;-63
2022/07/21 00:48:37;;;;;;;5.18;1.50;;;;;;;20.40;79.25;101496.91;7381599;19;20101;-62
2022/07/21 00:51:04;;;;;;;5.93;1.73;;;;;;;20.37;78.53;101493.78;7379798;19;20023;-63
2022/07/21 00:53:31;;;;;;;4.47;1.40;;;;;;;20.37;78.66;101491.94;7384440;19;20209;-62
2022/07/21 00:55:59;;;;;;;3.78;1.38;;;;;;;20.34;77.11;101494.19;7384307;19;20010;-62
2022/07/21 00:58:26;;;;;;;6.35;1.50;;;;;;;20.28;77.50;101489.59;7385141;19;20018;-62
2022/07/21 01:00:54;;;;;;;6.85;1.80;;;;;;;20.29;78.65;101485.91;7385491;19;20015;-62
2022/07/21 01:03:21;;;;;;;5.50;1.90;;;;;;;20.30;78.90;101492.91;7382594;19;20010;-62
2022/07/21 01:05:48;;;;;;;4.25;1.52;;;;;;;20.30;78.91;101493.75;7382448;19;20015;-62
2022/07/21 01:08:15;;;;;;;4.82;1.80;;;;;;;20.29;78.39;101488.59;7386096;19;20009;-63
2022/07/21 01:10:42;;;;;;;3.35;1.85;;;;;;;20.27;78.84;101490.63;7381434;19;20014;-63
2022/07/21 01:13:09;;;;;;;5.57;1.80;;;;;;;20.30;79.19;101495.59;7385749;19;20037;-61
2022/07/21 01:15:36;;;;;;;6.72;2.90;;;;;;;20.33;78.51;101500.56;7384491;19;20014;-62
2022/07/21 01:18:03;;;;;;;5.47;1.58;;;;;;;20.31;77.24;101500.78;7384682;19;20333;-62
2022/07/21 01:20:37;;;;;;;6.88;2.17;;;;;;;20.25;77.01;101492.69;7379109;19;20010;-62
2022/07/21 01:23:04;;;;;;;4.70;1.63;;;;;;;20.23;76.77;101486.72;7382030;19;20041;-65
2022/07/21 01:25:31;;;;;;;5.72;1.90;;;;;;;20.18;77.23;101489.16;7383802;19;20537;-65
2022/07/21 01:27:58;;;;;;;4.00;1.48;;;;;;;20.12;77.26;101489.94;7385020;19;20487;-65
2022/07/21 01:30:25;;;;;;;5.57;1.70;;;;;;;20.13;77.91;101486.25;7383328;19;20299;-65
2022/07/21 01:32:52;;;;;;;8.07;1.75;;;;;;;20.14;78.20;101487.91;7385469;19;20010;-65
2022/07/21 01:35:19;;;;;;;4.80;1.50;;;;;;;20.13;77.51;101495.09;7380431;19;20024;-64
2022/07/21 01:37:47;;;;;;;7.22;1.65;;;;;;;20.10;77.00;101482.16;7384403;19;20010;-66
2022/07/21 01:43:01;;;;;;;9.70;3.25;;;;;;;20.14;77.49;101490.59;7383302;19;20014;-65
2022/07/21 01:45:29;;;;;;;6.47;2.10;;;;;;;20.17;77.87;101495.50;7384073;19;20025;-65
2022/07/21 01:47:57;;;;;;;6.50;1.67;;;;;;;20.19;76.59;101496.16;7383352;19;20043;-67
2022/07/21 01:50:28;;;;;;;10.13;1.70;;;;;;;20.17;76.78;101492.84;7372644;19;20386;-67
2022/07/21 01:52:56;;;;;;;7.07;1.40;;;;;;;20.14;76.00;101499.44;7377802;19;20014;-65
2022/07/21 01:55:25;;;;;;;3.70;1.70;;;;;;;20.13;76.50;101497.78;7383133;19;20014;-65
2022/07/21 01:57:52;;;;;;;5.47;1.60;;;;;;;20.16;76.69;101491.22;7383642;19;20022;-65
2022/07/21 02:00:24;;;;;;;7.53;2.00;;;;;;;20.19;77.00;101482.78;7381556;19;20090;-68
2022/07/21 02:02:51;;;;;;;;;;;;;;;20.24;77.05;101485.69;7383968;19;20547;-66
2022/07/21 02:05:18;;;;;;;8.40;1.52;;;;;;;20.22;76.75;101485.88;7378760;19;20423;-65
2022/07/21 02:07:45;;;;;;;6.45;1.48;;;;;;;20.23;77.50;101476.00;7383266;19;20013;-64
2022/07/21 02:10:12;;;;;;;3.25;1.58;;;;;;;20.21;76.57;101472.72;7383456;19;20014;-66
2022/07/21 02:12:39;;;;;;;5.15;1.30;;;;;;;20.24;76.86;101480.34;7383337;19;20014;-65
2022/07/21 02:15:07;;;;;;;8.93;1.52;;;;;;;20.24;75.61;101480.34;7382408;19;20015;-64
2022/07/21 02:17:33;;;;;;;5.07;1.88;;;;;;;20.24;75.78;101486.50;7384182;19;20122;-65
2022/07/21 02:20:00;;;;;;;4.15;1.73;;;;;;;20.24;76.11;101483.00;7379352;19;20025;-64
2022/07/21 02:22:27;;;;;;;3.30;1.10;;;;;;;20.27;76.51;101491.44;7382485;19;20090;-65
2022/07/21 02:24:54;;;;;;;4.50;2.03;;;;;;;20.31;76.57;101492.75;7383410;19;20051;-65
2022/07/21 02:27:21;;;;;;;4.90;1.35;;;;;;;20.31;76.55;101492.75;7381840;19;20011;-64
2022/07/21 02:29:48;;;;;;;5.28;1.30;;;;;;;20.35;76.55;101495.84;7381632;19;20014;-65
2022/07/21 02:32:15;;;;;;;4.03;1.40;;;;;;;20.36;76.04;101501.00;7383255;19;20029;-65
2022/07/21 02:34:42;;;;;;;6.90;2.22;;;;;;;20.35;76.64;101494.00;7379169;19;20010;-65
2022/07/21 02:37:09;;;;;;;4.50;1.55;;;;;;;20.38;76.97;101503.44;7381534;19;20018;-64
2022/07/21 02:39:36;;;;;;;3.95;1.38;;;;;;;20.41;77.53;101498.53;7379061;19;20025;-65
2022/07/21 02:42:03;;;;;;;7.55;2.28;;;;;;;20.47;76.12;101496.88;7382314;19;20118;-64
2022/07/21 02:44:30;;;;;;;4.47;1.52;;;;;;;20.45;76.32;101499.78;7382268;19;20323;-65
2022/07/21 02:46:57;;;;;;;3.78;1.20;;;;;;;20.48;76.32;101495.88;7382659;19;20019;-65
2022/07/21 02:49:24;;;;;;;3.13;1.20;;;;;;;20.49;75.79;101500.19;7375585;19;20548;-66
2022/07/21 02:51:51;;;;;;;5.43;1.23;;;;;;;20.47;75.72;101500.41;7377799;19;20510;-65
2022/07/21 02:54:18;;;;;;;6.18;1.27;;;;;;;20.45;75.82;101491.75;7379101;19;20018;-64
2022/07/21 02:56:48;;;;;;;3.83;1.00;;;;;;;20.48;75.93;101498.53;7382845;19;20042;-64
2022/07/21 02:59:15;;;;;;;5.65;1.42;;;;;;;20.48;75.69;101491.34;7379703;19;20014;-65
2022/07/21 03:01:42;;;;;;;5.22;0.90;;;;;;;20.51;75.87;101498.16;7383509;19;20010;-64
2022/07/21 03:04:09;;;;;;;6.63;0.90;;;;;;;20.49;75.07;101497.53;7384905;19;20049;-65
2022/07/21 03:06:37;;;;;;;5.53;1.05;;;;;;;20.48;74.71;101501.22;7386604;19;20014;-64
2022/07/21 03:09:04;;;;;;;4.35;0.90;;;;;;;20.47;75.03;101499.56;7388925;19;20131;-64
2022/07/21 03:11:31;;;;;;;3.92;1.00;;;;;;;20.47;74.65;101505.75;7388989;19;20021;-65
2022/07/21 03:13:58;;;;;;;3.63;1.17;;;;;;;20.45;74.51;101499.78;7388868;19;20018;-65
2022/07/21 03:16:25;;;;;;;3.22;0.93;;;;;;;20.45;75.03;101502.47;7386326;19;20373;-65
2022/07/21 03:18:52;;;;;;;3.78;1.13;;;;;;;20.44;74.29;101505.31;7386313;19;20093;-66
2022/07/21 03:21:20;;;;;;;5.97;0.90;;;;;;;20.42;74.35;101507.38;7387415;19;20842;-64
2022/07/21 03:23:47;;;;;;;2.65;0.80;;;;;;;20.39;73.38;101510.44;7386363;19;20026;-65
2022/07/21 03:26:15;;;;;;;5.18;0.70;;;;;;;20.36;73.62;101513.53;7386936;19;20033;-66
2022/07/21 03:28:43;;;;;;;2.85;1.00;;;;;;;20.32;73.74;101520.28;7386429;19;20014;-65
2022/07/21 03:31:10;;;;;;;3.65;0.60;;;;;;;20.28;73.35;101519.00;7388087;19;20538;-65
2022/07/21 03:33:37;;;;;;;7.05;0.80;;;;;;;20.22;73.04;101517.94;7386366;19;20014;-66
2022/07/21 03:36:05;;;;;;;3.42;0.60;;;;;;;20.11;72.51;101523.06;7386750;19;20022;-65
2022/07/21 03:38:32;;;;;;;5.53;0.77;;;;;;;20.01;72.99;101526.09;7387071;19;20021;-70
2022/07/21 03:40:59;;;;;;;3.65;1.35;;;;;;;19.92;73.30;101527.25;7388064;19;20535;-64
2022/07/21 03:43:25;;;;;;;6.13;0.60;;;;;;;19.92;73.73;101524.59;7386966;19;20018;-64
2022/07/21 03:45:52;;;;;;;4.50;1.00;;;;;;;19.92;73.89;101532.59;7387410;19;20576;-65
2022/07/21 03:48:19;;;;;;;1.70;0.47;;;;;;;19.91;73.41;101529.09;7386910;19;20098;-64
2022/07/21 03:50:46;;;;;;;2.88;0.50;;;;;;;19.94;73.38;101533.25;7384228;19;20018;-64
2022/07/21 03:53:13;;;;;;;3.55;0.60;;;;;;;19.93;73.23;101534.25;7383130;19;20376;-65
2022/07/21 03:55:40;;;;;;;4.00;0.60;;;;;;;19.95;73.46;101533.03;7386460;19;20026;-65
2022/07/21 03:58:07;;;;;;;2.92;0.50;;;;;;;19.93;73.13;101540.44;7387232;19;20417;-65
2022/07/21 04:00:39;;;;;;;8.23;0.60;;;;;;;19.89;73.52;101538.34;7385632;19;20018;-65
2022/07/21 04:03:08;;;;;;;3.42;0.60;;;;;;;19.89;73.62;101539.16;7386221;19;20030;-65
2022/07/21 04:05:35;;;;;;;2.42;0.50;;;;;;;19.90;74.01;101545.34;7382223;19;20454;-65
2022/07/21 04:08:03;;;;;;;3.78;0.50;;;;;;;19.92;73.76;101549.44;7384456;19;20017;-65
2022/07/21 04:10:32;;;;;;;2.65;0.50;;;;;;;19.94;73.73;101552.75;7385606;19;20151;-65
2022/07/21 04:13:01;;;;;;;2.83;0.68;;;;;;;19.95;73.80;101551.75;7386824;19;20021;-65
2022/07/21 04:15:29;;;;;;;2.85;0.40;;;;;;;19.96;73.16;101549.91;7383021;19;20105;-65
2022/07/21 04:17:56;;;;;;;4.88;0.60;;;;;;;19.97;73.29;101552.38;7386761;19;20014;-65
2022/07/21 04:20:23;;;;;;;2.78;1.02;;;;;;;19.97;73.30;101555.03;7380841;19;20014;-65
2022/07/21 04:22:53;;;;;;;2.17;0.55;;;;;;;19.98;74.10;101559.38;7385731;19;20092;-65
2022/07/21 04:25:20;;;;;;;5.72;0.90;;;;;;;19.98;73.30;101561.22;7385914;19;20058;-65
2022/07/21 04:27:49;;;;;;;2.83;0.63;;;;;;;19.95;72.82;101556.28;7386811;19;20010;-63
2022/07/21 04:30:26;;;;;;;4.45;0.40;;;;;;;19.96;73.42;101561.41;7385952;19;20550;-62
2022/07/21 04:32:53;;;;;;;2.15;0.50;;;;;;;19.99;73.90;101557.53;7387332;19;20107;-62
2022/07/21 04:35:20;;;;;;;6.55;0.50;;;;;;;20.00;73.48;101557.34;7381730;19;20359;-62
2022/07/21 04:37:47;;;;;;;4.35;0.60;;;;;;;19.98;72.83;101563.88;7387690;19;20392;-62
2022/07/21 04:40:15;;;;;;;4.50;0.90;;;;;;;19.97;73.21;101563.06;7386860;19;20011;-62
2022/07/21 04:42:43;;;;;;;2.83;0.60;;;;;;;20.01;73.73;101566.19;7384590;19;20386;-67
2022/07/21 04:45:12;;;;;;;5.15;0.98;;;;;;;20.02;73.43;101568.63;7385271;19;20131;-66
2022/07/21 04:47:54;;;;;;;4.88;0.80;;;;;;;20.04;73.40;101574.63;7386608;19;20119;-65
2022/07/21 04:50:26;;;;;;;5.32;0.50;;;;;;;20.06;73.40;101577.91;7380853;19;20071;-65
2022/07/21 04:52:54;;;;;;;6.60;0.90;;;;;;;20.09;73.43;101571.34;7384170;19;20021;-66
2022/07/21 04:55:21;;;;;;;4.68;0.50;;;;;;;20.10;73.37;101569.50;7379438;19;20664;-63
2022/07/21 04:57:51;;;;;;;3.90;0.63;;;;;;;20.12;73.28;101581.63;7386657;19;20044;-62
2022/07/21 05:00:26;;;;;;;3.60;0.50;;;;;;;20.13;73.10;101582.47;7383913;19;20022;-61
2022/07/21 05:02:54;;;;;;;7.13;0.70;;;;;;;20.14;72.92;101584.94;7383649;19;20486;-62
2022/07/21 05:05:21;;;;;;;5.68;0.52;;;;;;;20.18;73.10;101582.69;7381824;19;20324;-62
2022/07/21 05:07:48;;;;;;;4.32;0.93;;;;;;;20.18;73.04;101588.03;7385002;19;20225;-65
2022/07/21 05:10:17;;;;;;;7.60;0.70;;;;;;;20.14;72.51;101582.28;7384019;19;20479;-66
2022/07/21 05:12:50;;;;;;;2.88;0.63;;;;;;;20.13;72.82;101590.47;7384912;19;20190;-65
2022/07/21 05:15:17;;;;;;;3.92;0.60;;;;;;;20.10;72.63;101597.06;7385291;19;20037;-66
2022/07/21 05:17:44;;;;;;;7.57;0.75;;;;;;;20.06;73.22;101599.28;7384870;19;20030;-66
2022/07/21 05:20:13;;;;;;;3.25;0.70;;;;;;;20.00;73.06;101588.56;7381091;19;20025;-66
2022/07/21 05:22:49;;;;;;;2.97;0.50;;;;;;;19.98;73.50;101596.78;7382931;19;20078;-65
2022/07/21 05:25:16;;;;;;;4.53;0.70;;;;;;;19.97;73.67;101594.28;7383497;19;20017;-62
2022/07/21 05:27:42;;;;;;;5.60;0.65;;;;;;;19.96;73.89;101604.16;7383166;19;20029;-62
2022/07/21 05:30:10;;;;;;;2.92;0.70;;;;;;;19.96;73.69;101604.16;7382070;19;20411;-63
2022/07/21 05:32:37;;;;;;;4.30;0.50;;;;;;;19.97;73.73;101610.31;7384061;19;20479;-63
2022/07/21 05:35:12;;;;;;;4.93;0.75;;;;;;;19.99;74.15;101614.47;7378674;19;20402;-63
2022/07/21 05:37:40;;;;;;;4.85;1.80;;;;;;;20.02;73.91;101607.88;7382996;19;20491;-64
2022/07/21 05:40:09;;;;;;;7.10;0.73;;;;;;;20.04;73.83;101608.53;7382826;19;20024;-62
2022/07/21 05:42:36;;;;;;;5.18;0.50;;;;;;;20.05;73.82;101605.66;7382768;19;20376;-64
2022/07/21 05:45:04;;;;;;;5.15;0.68;;;;;;;20.06;73.84;101609.97;7382866;19;20010;-63
2022/07/21 05:47:31;;;;;;;5.22;0.60;;;;;;;20.07;73.73;101616.13;7384318;19;20014;-63
2022/07/21 05:49:58;;;;;;;7.90;0.90;;;;;;;20.07;73.91;101611.63;7378487;19;20364;-63
2022/07/21 05:52:25;;;;;;;6.03;0.93;;;;;;;20.12;74.37;101618.22;7383227;19;20477;-64
2022/07/21 05:54:52;;;;;;;4.03;0.90;;;;;;;20.12;74.17;101618.22;7379490;19;20014;-62
2022/07/21 05:57:19;;;;;;;4.18;0.80;;;;;;;20.15;73.84;101624.03;7382952;19;20382;-62
2022/07/21 05:59:46;;;;;;;6.82;0.65;;;;;;;20.19;73.81;101625.28;7381910;19;20018;-62
2022/07/21 06:02:13;;;;;;;8.95;1.00;;;;;;;20.16;73.52;101625.69;7384733;19;20018;-63
2022/07/21 06:04:41;;;;;;;4.47;0.88;;;;;;;20.18;73.32;101625.47;7376768;19;20022;-63
2022/07/21 06:07:07;;;;;;;3.80;0.90;;;;;;;20.20;73.57;101624.25;7381108;19;20014;-64
2022/07/21 06:09:35;;;;;;;5.55;0.85;;;;;;;20.24;74.20;101627.38;7382275;19;20384;-63
2022/07/21 06:12:02;;;;;;;6.72;0.95;;;;;;;20.22;73.60;101629.38;7382233;19;20010;-64
2022/07/21 06:14:29;;;;;;;4.53;0.82;;;;;;;20.25;73.47;101634.38;7383479;19;20086;-62
2022/07/21 06:16:56;;;;;;;3.65;0.70;;;;;;;20.24;73.67;101635.38;7383332;19;20042;-63
2022/07/21 06:19:23;;;;;;;3.95;0.80;;;;;;;20.26;73.77;101636.84;7378911;19;20018;-66
2022/07/21 06:21:57;;;;;;;6.07;1.30;;;;;;;20.26;73.75;101639.53;7384194;19;20038;-66
2022/07/21 06:24:26;;;;;;;4.18;1.00;;;;;;;20.23;73.85;101639.91;7380894;19;20029;-67
2022/07/21 06:26:55;;;;;;;6.55;0.80;;;;;;;20.20;73.42;101640.31;7382888;19;20010;-65
2022/07/21 06:29:29;;;;;;;10.82;1.02;;;;;;;20.16;74.00;101638.22;7382448;19;20379;-66
2022/07/21 06:31:55;;;;;;;9.00;1.08;;;;;;;20.13;73.76;101636.75;7383873;19;20014;-65
2022/07/21 06:34:22;;;;;;;4.28;1.23;;;;;;;20.16;73.92;101640.88;7380947;19;20505;-65
2022/07/21 06:36:49;;;;;;;4.82;1.00;;;;;;;20.12;73.50;101639.59;7383134;19;20388;-65
2022/07/21 06:39:16;;;;;;;5.18;1.00;;;;;;;20.08;74.35;101636.50;7385688;19;20019;-65
2022/07/21 06:41:43;;;;;;;6.05;0.85;;;;;;;20.12;73.85;101642.28;7391275;19;20266;-66
2022/07/21 06:44:10;;;;;;;5.53;0.90;;;;;;;20.15;74.10;101641.91;7389045;19;20522;-62
2022/07/21 06:46:37;;;;;;;5.28;0.80;;;;;;;20.22;74.61;101646.25;7390320;19;20018;-62
2022/07/21 06:49:04;;;;;;;7.13;1.02;;;;;;;20.26;74.59;101647.53;7388763;19;20010;-63
2022/07/21 06:51:31;;;;;;;5.82;1.80;;;;;;;20.33;74.51;101651.09;7386915;19;20014;-63
2022/07/21 06:53:58;;;;;;;5.75;1.25;;;;;;;20.39;73.87;101661.00;7391120;19;20038;-61
2022/07/21 06:56:24;;;;;;;6.47;1.10;;;;;;;20.43;73.35;101659.59;7391151;19;20473;-63
2022/07/21 06:58:51;;;;;;;8.18;1.17;;;;;;;20.45;73.40;101656.72;7389032;19;20448;-63
2022/07/21 07:01:19;;;;;;;9.82;1.65;;;;;;;20.47;73.16;101660.00;7391318;19;20028;-63
2022/07/21 07:03:47;;;;;;;5.38;1.02;;;;;;;20.48;73.23;101673.19;7386530;19;20018;-62
2022/07/21 07:06:14;;;;;;;4.55;1.67;;;;;;;20.54;73.76;101674.25;7388777;19;20015;-62
2022/07/21 07:08:41;;;;;;;6.28;0.98;;;;;;;20.61;73.83;101674.31;7389049;19;20854;-62
2022/07/21 07:11:11;;;;;;;4.88;1.10;;;;;;;20.64;72.72;101674.72;7389101;19;20463;-62
2022/07/21 07:13:38;;;;;;;5.50;1.13;;;;;;;20.61;72.91;101676.97;7385469;19;20501;-61
2022/07/21 07:16:25;;;;;;;7.30;1.63;;;;;;;20.64;73.18;101680.06;7390167;19;20383;-62
2022/07/21 07:18:52;;;;;;;4.80;1.20;;;;;;;20.69;72.94;101679.47;7386840;19;20070;-62
2022/07/21 07:21:20;;;;;;;6.22;1.10;;;;;;;20.71;73.15;101686.28;7388245;19;20027;-62
2022/07/21 07:23:47;;;;;;;4.22;1.20;;;;;;;20.74;72.85;101675.19;7387093;19;20025;-61
2022/07/21 07:26:14;;;;;;;5.35;1.00;;;;;;;20.77;72.90;101685.50;7386541;19;20014;-63
2022/07/21 07:28:40;;;;;;;3.70;1.00;;;;;;;20.75;72.57;101687.53;7385990;19;20034;-62
2022/07/21 07:31:07;;;;;;;6.30;1.15;;;;;;;20.79;72.36;101683.44;7388808;19;20014;-61
2022/07/21 07:33:35;;;;;;;5.70;1.27;;;;;;;20.82;72.83;101685.75;7385834;19;20613;-63
2022/07/21 07:36:04;;;;;;;5.78;1.08;;;;;;;20.87;72.55;101683.28;7385901;19;20043;-62
2022/07/21 07:38:30;;;;;;;6.03;1.48;;;;;;;20.92;72.63;101685.38;7385148;19;20565;-61
2022/07/21 07:40:57;;;;;;;5.72;1.70;;;;;;;20.95;71.71;101692.16;7386115;19;20029;-63
2022/07/21 07:43:24;;;;;;;8.88;1.20;;;;;;;20.99;71.36;101696.06;7388303;19;20134;-63
2022/07/21 07:45:51;;;;;;;8.10;1.35;;;;;;;21.01;71.22;101696.72;7387194;19;20018;-62
2022/07/21 07:48:18;;;;;;;6.03;1.15;;;;;;;21.04;72.20;101698.97;7389759;19;20028;-62
2022/07/21 07:50:45;;;;;;;7.07;1.23;;;;;;;21.07;71.37;101691.41;7381300;19;20735;-61
2022/07/21 07:53:12;;;;;;;5.10;1.20;;;;;;;21.10;71.52;101703.53;7388360;19;20022;-62
2022/07/21 07:55:39;;;;;;;7.22;1.23;;;;;;;21.16;71.57;101702.78;7388407;19;20469;-63
2022/07/21 07:58:05;;;;;;;5.70;1.30;;;;;;;21.18;71.45;101700.75;7388288;19;20045;-62
2022/07/21 08:00:33;;;;;;;6.78;1.48;;;;;;;21.22;71.36;101702.81;7387446;19;20542;-62
2022/07/21 08:03:20;;;;;;;8.43;1.67;;;;;;;21.27;71.03;101707.56;7387713;19;20391;-63
2022/07/21 08:05:47;;;;;;;4.38;1.27;;;;;;;21.27;70.68;101703.03;7383996;19;20336;-62
2022/07/21 08:08:15;;;;;;;6.60;1.35;;;;;;;21.28;71.25;101706.53;7386907;19;20007;-61
2022/07/21 08:10:45;;;;;;;5.43;1.27;;;;;;;21.30;71.20;101704.47;7387158;19;20361;-62
2022/07/21 08:13:15;;;;;;;6.32;1.27;;;;;;;21.30;70.98;101699.94;7385983;19;20010;-62
2022/07/21 08:15:43;;;;;;;5.97;1.67;;;;;;;21.35;71.42;101710.03;7385340;19;20082;-62
2022/07/21 08:18:11;;;;;;;8.32;2.40;;;;;;;21.40;71.25;101699.56;7388012;19;20026;-63
2022/07/21 08:20:38;;;;;;;7.05;1.75;;;;;;;21.48;73.04;101702.06;7381932;19;20082;-61
2022/07/21 08:23:06;;;;;;;6.25;1.50;;;;;;;21.56;71.64;101699.19;7385166;19;20359;-63
2022/07/21 08:25:33;;;;;;;10.13;2.50;;;;;;;21.66;72.44;101704.13;7385586;19;20014;-62
2022/07/21 08:28:00;;;;;;;9.07;1.65;;;;;;;21.74;72.19;101711.97;7386991;19;20462;-62
2022/07/21 08:30:33;;;;;;;8.98;1.60;;;;;;;21.84;70.90;101711.59;7383023;19;20372;-62
2022/07/21 08:33:02;;;;;;;7.10;1.77;;;;;;;21.88;69.64;101718.19;7386898;19;20446;-62
2022/07/21 08:35:29;;;;;;;8.38;2.08;;;;;;;21.86;69.92;101714.88;7382282;19;20408;-62
2022/07/21 08:38:00;;;;;;;7.18;2.35;;;;;;;21.86;70.18;101710.34;7386789;19;20490;-62
2022/07/21 08:40:43;;;;;;;6.65;1.52;;;;;;;21.90;70.26;101714.25;7387597;19;20014;-62
2022/07/21 08:43:12;;;;;;;8.68;1.92;;;;;;;21.94;70.35;101712.03;7385582;19;20123;-65
2022/07/21 08:45:41;;;;;;;5.45;1.42;;;;;;;21.98;69.63;101718.63;7386356;19;20010;-65
2022/07/21 08:48:08;;;;;;;8.80;1.50;;;;;;;22.01;69.96;101721.72;7385480;19;20323;-66
2022/07/21 08:50:38;;;;;;;9.50;2.53;;;;;;;22.06;69.11;101718.41;7381241;19;20032;-65
2022/07/21 08:53:05;;;;;;;9.15;2.63;;;;;;;22.14;69.35;101720.91;7385857;19;20440;-65
2022/07/21 08:55:35;;;;;;;7.28;2.00;;;;;;;22.22;68.16;101722.53;7386129;19;20045;-61
2022/07/21 08:58:03;;;;;;;7.53;2.05;;;;;;;22.21;67.92;101726.25;7386267;19;20371;-62
2022/07/21 09:00:34;;;;;;;7.03;2.03;;;;;;;22.16;68.22;101732.25;7383986;19;20254;-61
2022/07/21 09:03:13;;;;;;;9.50;2.53;;;;;;;22.12;68.18;101734.50;7385855;19;20011;-61
2022/07/21 09:05:42;;;;;;;5.95;2.10;;;;;;;22.09;68.19;101729.56;7380619;19;20628;-62
2022/07/21 09:08:09;;;;;;;7.93;3.15;;;;;;;22.09;68.68;101732.25;7386035;19;20146;-62
2022/07/21 09:10:36;;;;;;;5.38;2.00;;;;;;;22.10;69.01;101731.19;7385366;19;20021;-61
2022/07/21 09:13:06;;;;;;;6.10;1.80;;;;;;;22.17;68.86;101734.72;7386416;19;20511;-63
2022/07/21 09:15:34;;;;;;;7.70;2.08;;;;;;;22.23;68.66;101733.06;7384036;19;20442;-63
2022/07/21 09:18:15;;;;;;;6.13;2.10;;;;;;;22.36;67.67;101732.22;7386741;19;20033;-66
2022/07/21 09:20:50;;;;;;;5.82;2.05;;;;;;;22.40;67.69;101736.16;7381388;19;20021;-66
2022/07/21 09:23:20;;;;;;;5.38;1.88;;;;;;;22.38;67.66;101728.31;7386178;19;20170;-66
2022/07/21 09:25:50;;;;;;;7.43;1.88;;;;;;;22.36;67.58;101726.84;7382705;19;20043;-65
2022/07/21 09:28:23;;;;;;;6.82;1.75;;;;;;;22.33;67.48;101730.78;7384831;19;20114;-62
2022/07/21 09:31:14;;;;;;;5.32;1.90;;;;;;;22.37;67.95;101733.88;7383701;19;20014;-62
2022/07/21 09:33:43;;;;;;;5.63;2.35;;;;;;;22.39;67.49;101732.66;7354792;19;20511;-62
2022/07/21 09:36:19;;;;;;;6.15;2.58;;;;;;;22.44;67.42;101729.34;7371926;19;20544;-62
2022/07/21 09:38:55;;;;;;;6.25;2.15;;;;;;;22.50;67.22;101736.56;7382006;19;20042;-61
2022/07/21 09:41:25;;;;;;;5.07;1.80;;;;;;;22.61;67.43;101735.91;7385400;19;20723;-62
2022/07/21 09:43:54;;;;;;;5.65;1.73;;;;;;;22.73;66.80;101749.53;7384584;19;20089;-62
2022/07/21 09:46:29;;;;;;;8.00;2.65;;;;;;;22.70;66.05;101740.03;7383304;19;20526;-63
2022/07/21 09:49:01;;;;;;;4.22;1.98;;;;;;;22.65;66.78;101741.69;7380935;19;20096;-62
2022/07/21 09:51:48;;;;;;;4.80;2.35;;;;;;;22.64;66.57;101745.41;7382590;19;20025;-62
2022/07/21 09:54:16;;;;;;;4.50;2.88;;;;;;;22.64;67.17;101746.22;7381185;19;20039;-64
2022/07/21 09:56:45;;;;;;;4.65;2.22;;;;;;;22.63;67.41;101751.78;7382276;19;20018;-61
2022/07/21 09:59:14;;;;;;;4.97;1.73;;;;;;;22.73;66.76;101752.22;7376983;19;20039;-62
2022/07/21 10:01:41;;;;;;;9.35;2.28;;;;;;;22.84;66.10;101744.34;7383549;19;20011;-62
2022/07/21 10:04:09;;;;;;;8.48;2.38;;;;;;;22.85;65.69;101740.66;7380008;19;20156;-62
2022/07/21 10:06:39;;;;;;;6.63;2.45;;;;;;;22.87;65.63;101746.59;7382125;19;20090;-63
2022/07/21 10:09:10;;;;;;;5.70;2.40;;;;;;;22.76;65.61;101741.88;7383435;19;20343;-62
2022/07/21 10:11:44;;;;;;;4.82;2.13;;;;;;;22.73;66.09;101750.38;7382625;19;20606;-62
2022/07/21 10:14:12;;;;;;;7.32;2.00;;;;;;;22.77;65.95;101746.22;7381340;19;20357;-62
2022/07/21 10:16:40;;;;;;;5.57;2.13;;;;;;;22.76;65.96;101746.41;7381477;19;20096;-62
2022/07/21 10:19:26;;;;;;;6.32;2.33;;;;;;;22.74;66.34;101740.47;7378756;19;20385;-62
2022/07/21 10:22:05;;;;;;;5.05;2.15;;;;;;;22.76;66.55;101739.19;7367094;19;20391;-62
2022/07/21 10:24:32;;;;;;;5.85;2.60;;;;;;;22.83;65.78;101740.00;7379537;19;20523;-62
2022/07/21 10:27:10;;;;;;;5.90;2.05;;;;;;;22.87;66.04;101743.91;7381837;19;20029;-62
2022/07/21 10:29:52;;;;;;;6.72;2.40;;;;;;;22.91;65.27;101744.31;7381011;19;20502;-62
2022/07/21 10:32:33;;;;;;;8.15;2.55;;;;;;;22.94;64.93;101746.59;7377199;19;20410;-62
2022/07/21 10:35:21;;;;;;;6.78;2.33;;;;;;;22.97;64.84;101744.31;7377932;19;20014;-61
2022/07/21 10:37:49;;;;;;;3.53;2.10;;;;;;;23.03;64.97;101738.09;7378751;19;20015;-62
2022/07/21 10:40:33;;;;;;;7.25;2.63;;;;;;;23.17;64.76;101733.47;7381402;19;20011;-62
2022/07/21 10:43:01;;;;;;;10.25;2.40;;;;;;;23.33;64.74;101734.84;7380999;19;20037;-61
2022/07/21 10:45:39;;;;;;;5.88;2.30;;;;;;;23.47;64.61;101728.41;7378701;19;20038;-62
2022/07/21 10:48:27;;;;;;;7.35;2.28;;;;;;;23.55;63.47;101738.09;7380099;19;20027;-62
2022/07/21 10:50:58;;;;;;;7.95;2.15;;;;;;;23.61;62.51;101734.53;7377148;19;20021;-62
2022/07/21 10:53:25;;;;;;;7.68;2.38;;;;;;;23.66;62.31;101732.84;7381017;19;20016;-62
2022/07/21 10:55:53;;;;;;;5.40;2.83;;;;;;;23.65;63.19;101733.06;7379273;19;20014;-61
2022/07/21 10:58:27;;;;;;;9.73;2.78;;;;;;;23.64;62.84;101736.78;7379623;19;20042;-62
2022/07/21 11:01:19;;;;;;;9.02;2.90;;;;;;;23.65;62.64;101733.06;7381788;19;20023;-62
2022/07/21 11:04:17;;;;;;;7.47;2.25;;;;;;;23.68;62.22;101732.63;7376708;19;20507;-62
2022/07/21 11:06:45;;;;;;;4.30;1.80;;;;;;;23.73;61.84;101735.47;7378405;19;20098;-62
2022/07/21 11:09:14;;;;;;;4.13;2.10;;;;;;;23.73;61.88;101733.63;7379842;19;20011;-63
2022/07/21 11:11:58;;;;;;;6.28;2.08;;;;;;;23.72;62.43;101739.22;7378512;19;20090;-62
2022/07/21 11:14:40;;;;;;;4.63;2.25;;;;;;;23.75;61.46;101739.59;7379901;19;20021;-63
2022/07/21 11:17:24;;;;;;;4.72;2.17;;;;;;;23.73;61.46;101744.38;7378707;19;20042;-62
2022/07/21 11:19:52;;;;;;;5.10;2.28;;;;;;;23.72;61.59;101739.22;7375974;19;20010;-62
2022/07/21 11:22:24;;;;;;;5.10;2.50;;;;;;;23.72;61.11;101726.59;7377552;19;20098;-62
2022/07/21 11:24:58;;;;;;;6.07;2.63;;;;;;;23.73;61.83;101738.97;7381022;19;20081;-61
2022/07/21 11:27:33;;;;;;;5.75;2.20;;;;;;;23.76;61.66;101741.25;7386180;19;20027;-61
2022/07/21 11:30:04;;;;;;;5.15;3.25;;;;;;;23.79;61.90;101740.81;7384718;19;20020;-61
2022/07/21 11:32:31;;;;;;;5.47;2.88;;;;;;;23.83;61.82;101733.94;7380579;19;20066;-62
2022/07/21 11:35:03;;;;;;;7.60;2.90;;;;;;;23.87;61.66;101739.75;7381590;19;20018;-62
2022/07/21 11:37:38;;;;;;;6.57;2.47;;;;;;;23.87;61.19;101737.84;7384678;19;20027;-62